Amunt
Inicio > meteoXarxa
Fes-te'n soci

METEOXARXA

Atzeneta del Maestrat
Ubicació
Comarca l′Alcalatén
Altitud (msnm) 402
Posició geogràfica 40° 12' 58.77" N, 00° 10' 23.64" W
Model Davis Vantage Pro
Presa de dades
Font de les dades Universitat Jaume I de Castelló
Estadístiques. Resum
Data Temperatura (ºC) Humitat (%) Pressió (hPa) Vent (km/h) Precipit. (mm)
Mínima Mitjana Màxima Mínima Mitjana Màxima Mínima Mitjana Màxima Predom. Mitjana Ràfega màxima Total Dies de pluja
Mínima Mitjana Màxima Mínima Mitjana Màxima
Últimes dades diàries
27-03-2017 6,1     9,8     14,7 W 6,6 37,0  
26-03-2017 1,9     9,8     16,4 ESE 2,7 22,5 0,0  
25-03-2017 0,3     9,3     16,9 SW 4,2 35,4 0,0  
24-03-2017 2,7     7,2     12,2 SW 2,1 17,7 0,8  
23-03-2017 4,8     9,8     14,4 NE 3,4 27,4 0,0  
22-03-2017 3,7     10,6     18,7 NNW 3,5 29,0 0,0  
21-03-2017 4,6     11,4     18,3 ESE 1,9 20,9 0,0  
20-03-2017 7,0     13,6     20,7 NNW 6,9 20,9 0,0  
19-03-2017 3,1     12,4     20,8 NNW 4,5 22,5 0,0  
18-03-2017 7,2     13,9     21,3 NNW 9,0 25,7 0,0  
17-03-2017 6,6     11,5     17,8 NNW 6,4 20,9 0,0  
16-03-2017 3,4     11,0     17,9 NNW 5,6 20,9 0,0  
15-03-2017 7,7     11,5     16,1 NNW 9,5 37,0 0,0  
14-03-2017 8,5     11,6     16,7 NNW 10,6 30,6 0,0  
12-03-2017 5,9     13,6     19,9 WNW 21,1 77,2 0,0  
11-03-2017 13,5     17,3     22,3 W 6,6 22,5 0,0  
10-03-2017 14,2     19,9     24,4 W 9,3 38,6 0,0  
09-03-2017 13,6     19,9     25,8 NW 9,3 29,0 0,0  
08-03-2017 12,6     15,5     21,3 NW 12,4 57,9 0,0  
07-03-2017 12,3     16,0     21,1 W 15,8 56,3 0,0  
06-03-2017 5,2     13,6     19,8 WNW 13,4 70,8 0,0  
05-03-2017 1,8     10,6     19,0 SSE 1,4 24,1 0,0  
04-03-2017 1,7     8,5     15,6 SW 3,2 29,0 0,0  
03-03-2017 6,2     9,5     13,2 WNW 3,5 40,2 18,0  
02-03-2017 7,7     12,3     17,1 WNW 10,6 33,8 0,0  
28-02-2017 2,5     8,6     17,5 W 7,6 61,2 0,0  
27-02-2017 4,9     10,2     16,2 NW 6,1 29,0 0,0  
26-02-2017 4,5     9,4     14,5 NW 6,4 22,5 0,0  
25-02-2017 4,9     8,3     14,0 NW 12,1 33,8 0,0  
24-02-2017 7,3     10,8     13,7 NW 18,2 51,5 0,0  
23-02-2017 9,2     12,5     17,3 NNW 6,6 33,8 0,0  
22-02-2017 7,0     11,7     16,7 NNW 6,9 20,9 0,0  
Dades del mes en curs (actualitzades fins l'últim dia disponible)
03/2017 0,3 6,5 14,2 12,4 12,2 18,5 25,8   7,3 77,2 18,8  
Últimes dades mensuals
02/2017 0,9 5,2 11,8 9,7 9,4 14,9 20,2 8,7 135,2 10,6 4
05/2016 6,2 11,5 15,8 15,3 13,6 19,9 26,6 11,9 98,2 55,9 8
04/2016 4,9 8,9 13,0 12,6 12,3 17,2 22,7 12,3 91,7 33,9 10
03/2016 2,9 6,7 11,2 10,2 8,7 14,5 21,0 15,5 117,5 49,9 11
02/2016 -0,6 6,5 15,0 10,2 7,0 14,7 20,9 17,8 93,3 6,4 5
01/2016 3,3 7,0 12,3 10,5 7,3 14,2 18,8 12,3 90,1 3,4 4
12/2015 5,5 8,0 12,5 11,1 11,9 14,9 18,5 5,3 33,8 0,6 2
11/2015 2,9 10,2 14,2 13,6 8,7 17,4 22,6 12,5 95,0 133,4 3
10/2015 6,6 12,4 20,3 15,8 15,8 19,6 26,3 9,1 59,5 26,8 8
09/2015 11,6 15,3 18,9 18,6 17,9 23,3 27,9 9,2 62,8 71,5 12
08/2015 15,3 18,4 23,1 22,4 19,9 26,8 31,8 8,9 74,0 63,7 7
07/2015 16,1 20,6 23,8 24,9 23,8 30,0 36,6 8,2 96,6 45,5 5
06/2015 11,6 16,2 22,9 21,0 21,9 26,6 31,6 9,5 83,7 63,0 7
Dades de l'any en curs (actualitzades fins l'últim dia disponible)
2017 -2,4 5,0 14,2 9,7 4,3 14,7 25,8   10,0 135,2 40,9  
Últimes dades anuals
2015 -0,6 11,8 16,1 15,6 18,5 20,1 36,8 11,5 140,0 754,5 54